Portada
METAR-TAF:

METAR-TAF

Aeroports :

Tarawa, Kiribati

latitud: 01-21N, longitud: 172-55E, altitud: 2 m

Observació

L'informe es va fer fa 19 minuts, a les 08:00 UTC
Vent 5 kt del Est/Nord-Est
Temperatura 28°C
Humitat 84%
Pressió 1007 hPa
Visibilitat 10 km o més
Escasses núvols a una alçada de 1900 ft

METAR: NGTA 020800Z 06005KT 9999 FEW019 28/25 Q1007

Hora: 22:19 (08:19 UTC)

Pronòstic

L'informe es va fer fa 2 hores i 55 minuts, a les 05:24 UTC
Pronòstic vàlid del 02 a les 06 UTC al 03 a les 06 UTC
Vent 8 kt del Est/Nord-Est
Visibilitat 10 km o més
Núvols disperses a una alçada de 2000 ft

TAF: NGTA 020524Z 0206/0306 07008KT 9999 SCT020

Observacions i pronòstics meteorològics de més de 4000 aeroports (METAR i TAF).

Les estacions disponibles són els punts grocs i vermells al mapa.

Posi el ratolí al punt desitjat per veure el nom de l'estació.

Feu clic per veure les observacions i els pronòstics meteorològics.

Per canviar el mapa: feu clic els botons verds amb una creu de color negre per apropar; al botó verd amb un guió per allunyar la imatge; o en les fletxes verdes per a mapes adjacents.


METAR-TAF: